Time;durP1;ratioP1;P1;durP2;ratioP2;P2;SDS_P1;SDS_P2;PMS_P1;PMS_P2;Temp;Humidity;BMP_temperature;BMP_pressure;BME280_temperature;BME280_humidity;BME280_pressure;Samples;Min_cycle;Max_cycle;Signal;HPM_P1;HPM_P2
2023/05/10 00:01:47;;;;;;;21.98;16.30;;;13.70;99.90;;;;;;5043801;28;20043;-54
2023/05/10 00:04:13;;;;;;;20.40;16.20;;;13.70;99.90;;;;;;5043836;28;20480;-55
2023/05/10 00:06:39;;;;;;;23.63;16.95;;;13.70;99.90;;;;;;5044129;28;20242;-56
2023/05/10 00:09:05;;;;;;;21.75;16.75;;;13.70;99.90;;;;;;5043498;28;20132;-59
2023/05/10 00:11:30;;;;;;;21.65;16.40;;;13.70;99.90;;;;;;5044233;28;20052;-58
2023/05/10 00:13:56;;;;;;;25.50;17.27;;;13.70;99.90;;;;;;5044421;28;20532;-51
2023/05/10 00:16:22;;;;;;;20.98;16.27;;;13.60;99.90;;;;;;5044370;28;20044;-58
2023/05/10 00:18:47;;;;;;;24.80;17.25;;;13.60;99.90;;;;;;5042762;28;20036;-58
2023/05/10 00:21:13;;;;;;;21.55;16.27;;;13.70;99.90;;;;;;5044511;28;20043;-52
2023/05/10 00:23:39;;;;;;;22.17;16.30;;;13.60;99.90;;;;;;5044453;28;20493;-55
2023/05/10 00:26:04;;;;;;;23.60;17.23;;;13.60;99.90;;;;;;5043241;28;20573;-53
2023/05/10 00:28:30;;;;;;;25.33;17.70;;;13.70;99.90;;;;;;5043267;28;20115;-59
2023/05/10 00:30:56;;;;;;;22.15;16.10;;;13.60;99.90;;;;;;5043659;28;20043;-58
2023/05/10 00:33:22;;;;;;;22.80;16.38;;;13.60;99.90;;;;;;5042121;28;20128;-56
2023/05/10 00:35:47;;;;;;;25.15;16.95;;;13.70;99.90;;;;;;5043050;28;20524;-52
2023/05/10 00:38:14;;;;;;;28.77;17.42;;;13.70;99.90;;;;;;5043290;28;20056;-55
2023/05/10 00:40:39;;;;;;;18.92;14.35;;;13.60;99.90;;;;;;5043364;28;20056;-47
2023/05/10 00:43:05;;;;;;;9.68;7.03;;;13.60;99.90;;;;;;5043069;28;20053;-59
2023/05/10 00:45:36;;;;;;;7.35;5.03;;;13.50;99.90;;;;;;5043568;28;20117;-56
2023/05/10 00:48:03;;;;;;;6.03;4.10;;;13.40;99.90;;;;;;5043492;28;20059;-58
2023/05/10 00:50:30;;;;;;;8.02;4.20;;;13.30;99.90;;;;;;5042392;28;20048;-59
2023/05/10 00:52:57;;;;;;;10.52;5.47;;;13.20;99.90;;;;;;5043465;28;20044;-55
2023/05/10 00:55:23;;;;;;;12.45;7.03;;;13.10;99.90;;;;;;5043616;28;20294;-57
2023/05/10 00:57:49;;;;;;;12.57;10.15;;;13.00;99.90;;;;;;5041531;28;20492;-57
2023/05/10 01:00:18;;;;;;;15.55;10.98;;;13.10;99.90;;;;;;5043590;28;20542;-55
2023/05/10 01:02:45;;;;;;;14.20;11.00;;;13.00;99.90;;;;;;5042983;28;20053;-54
2023/05/10 01:05:11;;;;;;;15.40;11.48;;;12.90;99.90;;;;;;5042072;28;20048;-57
2023/05/10 01:07:37;;;;;;;16.23;11.65;;;12.80;99.90;;;;;;5042593;28;20060;-48
2023/05/10 01:10:04;;;;;;;15.07;13.18;;;12.80;99.90;;;;;;5043052;28;20049;-57
2023/05/10 01:12:30;;;;;;;14.15;11.77;;;12.80;99.90;;;;;;5042467;28;20044;-53
2023/05/10 01:14:57;;;;;;;15.95;12.75;;;12.80;99.90;;;;;;5043056;28;20052;-59
2023/05/10 01:17:23;;;;;;;14.80;11.75;;;12.80;99.90;;;;;;5043081;28;20049;-58
2023/05/10 01:19:49;;;;;;;14.82;12.43;;;12.70;99.90;;;;;;5042381;28;20044;-53
2023/05/10 01:22:21;;;;;;;14.40;12.20;;;12.70;99.90;;;;;;5042390;28;20044;-51
2023/05/10 01:25:01;;;;;;;15.25;12.70;;;12.60;99.90;;;;;;5042689;28;20059;-59
2023/05/10 01:28:01;;;;;;;13.95;12.15;;;12.60;99.90;;;;;;5042509;28;20075;-55
2023/05/10 01:30:51;;;;;;;14.90;12.55;;;12.60;99.90;;;;;;5042611;28;20405;-57
2023/05/10 01:33:26;;;;;;;14.98;12.60;;;12.50;99.90;;;;;;5042624;28;20408;-55
2023/05/10 01:36:01;;;;;;;16.40;12.35;;;12.50;99.90;;;;;;5041672;28;20040;-57
2023/05/10 01:39:04;;;;;;;15.48;12.57;;;12.50;99.90;;;;;;5043019;28;20110;-59
2023/05/10 01:41:42;;;;;;;17.05;13.02;;;12.50;99.90;;;;;;5038474;28;20232;-53
2023/05/10 01:44:20;;;;;;;15.95;12.68;;;12.50;99.90;;;;;;5042160;28;20348;-55
2023/05/10 01:46:53;;;;;;;15.65;12.13;;;12.50;99.90;;;;;;5042091;28;20228;-56
2023/05/10 01:49:26;;;;;;;18.63;12.93;;;12.50;99.90;;;;;;5041635;28;20049;-58
2023/05/10 01:51:57;;;;;;;17.95;12.85;;;12.50;99.90;;;;;;5040443;28;20044;-59
2023/05/10 01:54:24;;;;;;;18.85;13.52;;;12.50;99.90;;;;;;5042034;28;20428;-56
2023/05/10 01:56:55;;;;;;;18.17;14.23;;;12.50;99.90;;;;;;5042491;28;20256;-58
2023/05/10 01:59:22;;;;;;;18.75;14.52;;;12.50;99.90;;;;;;5042123;28;20044;-54
2023/05/10 02:01:50;;;;;;;20.13;15.52;;;12.50;99.90;;;;;;5041892;28;20432;-52
2023/05/10 02:04:19;;;;;;;19.55;15.38;;;12.50;99.90;;;;;;5041523;28;20127;-57
2023/05/10 02:06:46;;;;;;;20.98;15.15;;;12.50;99.90;;;;;;5041726;28;20041;-54
2023/05/10 02:09:13;;;;;;;21.65;15.25;;;12.50;99.90;;;;;;5041589;28;20147;-51
2023/05/10 02:11:42;;;;;;;18.88;14.65;;;12.50;99.90;;;;;;5041794;28;20408;-59
2023/05/10 02:14:11;;;;;;;18.80;14.45;;;12.50;99.90;;;;;;5041392;28;20049;-54
2023/05/10 02:16:38;;;;;;;18.98;12.48;;;12.50;99.90;;;;;;5041970;28;20045;-57
2023/05/10 02:19:06;;;;;;;16.65;13.25;;;12.50;99.90;;;;;;5040975;28;20525;-60
2023/05/10 02:21:33;;;;;;;15.90;12.07;;;12.50;99.90;;;;;;5041683;28;20110;-53
2023/05/10 02:24:02;;;;;;;18.00;13.18;;;12.50;99.90;;;;;;5042379;28;20184;-59
2023/05/10 02:26:28;;;;;;;18.65;13.30;;;12.50;99.90;;;;;;5042397;28;20414;-57
2023/05/10 02:28:56;;;;;;;15.57;12.30;;;12.50;99.90;;;;;;5041143;28;20052;-50
2023/05/10 02:31:22;;;;;;;18.08;13.15;;;12.50;99.90;;;;;;5041678;28;20327;-58
2023/05/10 02:33:49;;;;;;;19.67;14.30;;;12.50;99.90;;;;;;5039755;28;20182;-57
2023/05/10 02:36:16;;;;;;;22.55;16.63;;;12.60;99.90;;;;;;5040921;28;20112;-54
2023/05/10 02:38:43;;;;;;;23.15;16.13;;;12.60;99.90;;;;;;5041661;28;20363;-54
2023/05/10 02:41:10;;;;;;;24.60;16.45;;;12.60;99.90;;;;;;5041336;28;20471;-56
2023/05/10 02:43:37;;;;;;;22.10;15.95;;;12.50;99.90;;;;;;5040607;28;20519;-56
2023/05/10 02:46:03;;;;;;;24.10;16.50;;;12.50;99.90;;;;;;5041837;28;20388;-49
2023/05/10 02:48:29;;;;;;;26.00;17.15;;;12.50;99.90;;;;;;5040630;28;20218;-57
2023/05/10 02:51:00;;;;;;;25.30;17.00;;;12.50;99.90;;;;;;5040752;28;20068;-47
2023/05/10 02:53:31;;;;;;;24.80;17.15;;;12.50;99.90;;;;;;5040600;28;20071;-52
2023/05/10 02:56:00;;;;;;;28.20;17.48;;;12.50;99.90;;;;;;5041141;28;20048;-57
2023/05/10 02:58:26;;;;;;;26.77;17.70;;;12.50;99.90;;;;;;5040744;28;20269;-54
2023/05/10 03:00:52;;;;;;;29.63;18.10;;;12.50;99.90;;;;;;5041204;28;20168;-52
2023/05/10 03:03:18;;;;;;;26.67;17.85;;;12.40;99.90;;;;;;5041168;28;20052;-58
2023/05/10 03:05:43;;;;;;;23.58;15.85;;;12.50;99.90;;;;;;5040080;28;20037;-57
2023/05/10 03:08:09;;;;;;;23.85;16.30;;;12.40;99.90;;;;;;5040902;28;20061;-54
2023/05/10 03:10:59;;;;;;;17.88;13.25;;;12.40;99.90;;;;;;5041041;28;20080;-49
2023/05/10 03:13:46;;;;;;;18.58;13.20;;;12.50;99.90;;;;;;5039960;28;20056;-55
2023/05/10 03:16:19;;;;;;;18.08;13.23;;;12.50;99.90;;;;;;5041217;28;20041;-59
2023/05/10 03:18:55;;;;;;;20.17;13.10;;;12.50;99.90;;;;;;5040040;28;20518;-54
2023/05/10 03:21:25;;;;;;;17.60;12.88;;;12.40;99.90;;;;;;5040957;28;20056;-53
2023/05/10 03:23:58;;;;;;;17.20;13.18;;;12.40;99.90;;;;;;5040435;28;20041;-48
2023/05/10 03:26:29;;;;;;;18.50;13.00;;;12.30;99.90;;;;;;5041068;28;20044;-53
2023/05/10 03:28:58;;;;;;;16.05;12.48;;;12.30;99.90;;;;;;5040743;28;20037;-59
2023/05/10 03:31:24;;;;;;;16.45;12.45;;;12.20;99.90;;;;;;5040638;28;20044;-54
2023/05/10 03:33:51;;;;;;;16.65;12.27;;;12.20;99.90;;;;;;5040337;28;20041;-59
2023/05/10 03:36:18;;;;;;;17.05;13.43;;;12.20;99.90;;;;;;5040862;28;20043;-58
2023/05/10 03:38:43;;;;;;;16.13;13.05;;;12.20;99.90;;;;;;5040197;28;20037;-50
2023/05/10 03:41:09;;;;;;;19.73;13.77;;;12.10;99.90;;;;;;5040461;28;20044;-52
2023/05/10 03:43:35;;;;;;;16.95;13.30;;;12.10;99.90;;;;;;5040873;28;20210;-56
2023/05/10 03:46:04;;;;;;;19.52;14.45;;;12.10;99.90;;;;;;5040103;28;20132;-53
2023/05/10 03:48:30;;;;;;;19.55;14.00;;;12.10;99.90;;;;;;5040252;28;20298;-54
2023/05/10 03:50:56;;;;;;;19.40;15.15;;;12.10;99.90;;;;;;5040525;28;20400;-53
2023/05/10 03:53:22;;;;;;;19.85;13.80;;;12.10;99.90;;;;;;5040187;28;20051;-55
2023/05/10 03:55:48;;;;;;;18.73;14.00;;;12.10;99.90;;;;;;5040604;28;20041;-59
2023/05/10 03:58:13;;;;;;;20.77;14.70;;;12.20;99.90;;;;;;5039573;28;20396;-51
2023/05/10 04:00:43;;;;;;;21.25;15.40;;;12.20;99.90;;;;;;5040693;28;20040;-54
2023/05/10 04:03:10;;;;;;;21.65;15.23;;;12.10;99.90;;;;;;5040602;28;20051;-50
2023/05/10 04:05:36;;;;;;;21.80;15.30;;;12.10;99.90;;;;;;5044786;28;20060;-59
2023/05/10 04:08:02;;;;;;;24.23;14.90;;;12.10;99.90;;;;;;5043658;28;20053;-54
2023/05/10 04:10:28;;;;;;;24.35;15.43;;;12.10;99.90;;;;;;5043644;28;20304;-57
2023/05/10 04:12:53;;;;;;;25.42;15.23;;;12.20;99.90;;;;;;5044358;28;20045;-49
2023/05/10 04:15:19;;;;;;;26.95;16.08;;;12.20;99.90;;;;;;5044143;28;20041;-60
2023/05/10 04:17:45;;;;;;;26.42;16.17;;;12.20;99.90;;;;;;5043510;28;20045;-56
2023/05/10 04:20:11;;;;;;;28.55;16.83;;;12.20;99.90;;;;;;5041748;28;20071;-51
2023/05/10 04:22:37;;;;;;;27.15;17.02;;;12.20;99.90;;;;;;5044321;28;20200;-58
2023/05/10 04:25:02;;;;;;;27.52;17.10;;;12.20;99.90;;;;;;5043742;28;20143;-47
2023/05/10 04:27:28;;;;;;;26.33;16.92;;;12.20;99.90;;;;;;5043667;28;20526;-58
2023/05/10 04:29:54;;;;;;;28.05;17.45;;;12.20;99.90;;;;;;5043872;28;20045;-54
2023/05/10 04:32:20;;;;;;;27.10;17.25;;;12.30;99.90;;;;;;5043457;28;20334;-51
2023/05/10 04:34:45;;;;;;;26.08;16.73;;;12.20;99.90;;;;;;5042319;28;20045;-59
2023/05/10 04:37:11;;;;;;;26.90;17.48;;;12.30;99.90;;;;;;5044097;28;20048;-59
2023/05/10 04:39:37;;;;;;;25.92;17.08;;;12.30;99.90;;;;;;5044076;28;20049;-58
2023/05/10 04:42:05;;;;;;;25.05;16.48;;;12.30;99.90;;;;;;5042669;28;20485;-54
2023/05/10 04:44:34;;;;;;;26.55;17.48;;;12.20;99.90;;;;;;5043483;28;20049;-59
2023/05/10 04:47:02;;;;;;;24.70;16.17;;;12.30;99.90;;;;;;5043619;28;20107;-57
2023/05/10 04:49:28;;;;;;;25.98;16.20;;;12.20;99.90;;;;;;5040706;28;20056;-53
2023/05/10 04:51:53;;;;;;;25.40;17.58;;;12.30;99.90;;;;;;5042212;28;20311;-59
2023/05/10 04:54:19;;;;;;;24.35;15.45;;;12.30;99.90;;;;;;5043113;28;20400;-46
2023/05/10 04:56:45;;;;;;;27.30;17.75;;;12.30;99.90;;;;;;5043451;28;20395;-60
2023/05/10 04:59:11;;;;;;;26.08;18.33;;;12.30;99.90;;;;;;5043009;28;20037;-56
2023/05/10 05:01:36;;;;;;;28.50;16.70;;;12.30;99.90;;;;;;5042242;28;20051;-52
2023/05/10 05:04:02;;;;;;;26.08;17.05;;;12.20;99.90;;;;;;5042928;28;20149;-59
2023/05/10 05:06:28;;;;;;;23.75;16.25;;;12.30;99.90;;;;;;5042633;28;20108;-48
2023/05/10 05:08:54;;;;;;;22.00;16.15;;;12.30;99.90;;;;;;5043141;28;20057;-58
2023/05/10 05:11:20;;;;;;;25.10;16.55;;;12.30;99.90;;;;;;5043049;28;20037;-53
2023/05/10 05:13:46;;;;;;;21.85;15.60;;;12.30;99.90;;;;;;5042588;28;20037;-56
2023/05/10 05:16:12;;;;;;;22.42;16.17;;;12.30;99.90;;;;;;5043101;28;20480;-60
2023/05/10 05:18:38;;;;;;;23.23;14.63;;;12.40;99.90;;;;;;5042966;28;20124;-60
2023/05/10 05:21:12;;;;;;;22.02;15.35;;;12.30;99.90;;;;;;5043286;28;20085;-56
2023/05/10 05:23:38;;;;;;;;;;;12.40;99.90;;;;;;5043649;28;20052;-49
2023/05/10 05:26:04;;;;;;;21.70;14.70;;;12.20;99.90;;;;;;5042827;28;20314;-56
2023/05/10 05:28:32;;;;;;;21.20;14.48;;;12.30;99.90;;;;;;5042486;28;20535;-55
2023/05/10 05:30:58;;;;;;;22.23;14.02;;;12.20;99.90;;;;;;5041187;28;20095;-47
2023/05/10 05:33:23;;;;;;;20.80;14.13;;;12.20;99.90;;;;;;5041886;28;20531;-60
2023/05/10 05:35:50;;;;;;;21.40;14.25;;;12.20;99.90;;;;;;5043072;28;20045;-55
2023/05/10 05:38:17;;;;;;;20.73;13.52;;;12.20;99.90;;;;;;5041394;28;20063;-55
2023/05/10 05:40:43;;;;;;;21.65;14.35;;;12.30;99.90;;;;;;5042735;28;20045;-52
2023/05/10 05:43:08;;;;;;;22.00;12.18;;;12.30;99.90;;;;;;5042453;28;20557;-59
2023/05/10 05:45:34;;;;;;;19.67;12.65;;;12.20;99.90;;;;;;5040507;28;20053;-58
2023/05/10 05:48:00;;;;;;;19.25;11.90;;;12.30;99.90;;;;;;5041547;28;20047;-53
2023/05/10 05:50:25;;;;;;;15.18;11.23;;;12.40;99.90;;;;;;5042698;28;20103;-58
2023/05/10 05:52:51;;;;;;;13.68;10.90;;;12.30;99.90;;;;;;5041028;28;20051;-60
2023/05/10 05:55:17;;;;;;;15.45;11.15;;;12.30;99.90;;;;;;5041973;28;20080;-58
2023/05/10 05:57:43;;;;;;;15.05;11.00;;;12.20;99.90;;;;;;5042799;28;20091;-57
2023/05/10 06:00:09;;;;;;;14.80;10.90;;;12.20;99.90;;;;;;5042022;28;20041;-47
2023/05/10 06:02:34;;;;;;;16.00;11.23;;;12.20;99.90;;;;;;5041574;28;20392;-57
2023/05/10 06:05:00;;;;;;;15.98;10.70;;;12.20;99.90;;;;;;5041669;28;20051;-59
2023/05/10 06:07:26;;;;;;;12.30;10.30;;;12.20;99.90;;;;;;5041833;28;20048;-57
2023/05/10 06:09:51;;;;;;;16.23;10.48;;;12.20;99.90;;;;;;5041609;28;20051;-50
2023/05/10 06:12:17;;;;;;;14.68;10.82;;;12.20;99.90;;;;;;5042209;28;20110;-55
2023/05/10 06:14:43;;;;;;;13.50;10.35;;;12.20;99.90;;;;;;5042259;28;20056;-56
2023/05/10 06:17:08;;;;;;;11.18;8.38;;;12.10;99.90;;;;;;5042341;28;20484;-60
2023/05/10 06:19:34;;;;;;;10.27;7.15;;;12.10;99.90;;;;;;5040515;28;20053;-49
2023/05/10 06:22:00;;;;;;;10.95;6.88;;;12.10;99.90;;;;;;5042211;28;20416;-53
2023/05/10 06:24:26;;;;;;;6.43;4.70;;;12.10;99.90;;;;;;5041586;28;20504;-54
2023/05/10 06:26:52;;;;;;;5.20;3.85;;;12.10;99.90;;;;;;5041255;28;20064;-59
2023/05/10 06:29:18;;;;;;;6.38;3.85;;;12.20;99.90;;;;;;5041559;28;20519;-59
2023/05/10 06:31:43;;;;;;;5.43;3.60;;;12.10;99.90;;;;;;5040353;28;20515;-54
2023/05/10 06:34:11;;;;;;;5.85;3.47;;;12.10;99.90;;;;;;5040219;28;20359;-55
2023/05/10 06:36:37;;;;;;;4.40;3.47;;;12.10;99.90;;;;;;5041862;28;20381;-58
2023/05/10 06:39:03;;;;;;;5.88;4.30;;;12.20;99.90;;;;;;5041696;28;20049;-59
2023/05/10 06:41:28;;;;;;;5.25;4.38;;;12.10;99.90;;;;;;5041514;28;20049;-57
2023/05/10 06:43:54;;;;;;;5.20;4.20;;;12.10;99.90;;;;;;5040673;28;20374;-52
2023/05/10 06:46:20;;;;;;;5.10;3.85;;;12.10;99.90;;;;;;5041677;28;20037;-57
2023/05/10 06:48:45;;;;;;;5.32;3.67;;;12.20;99.90;;;;;;5044076;28;20067;-58
2023/05/10 06:51:11;;;;;;;5.32;3.30;;;12.10;99.90;;;;;;5044042;28;20049;-60
2023/05/10 06:53:37;;;;;;;3.80;2.85;;;12.10;99.90;;;;;;5044174;28;20140;-48
2023/05/10 06:56:03;;;;;;;4.05;3.50;;;12.20;99.90;;;;;;5043850;28;20033;-51
2023/05/10 06:58:28;;;;;;;4.78;3.42;;;12.10;99.90;;;;;;5043645;28;20119;-56
2023/05/10 07:00:54;;;;;;;4.57;3.50;;;12.10;99.90;;;;;;5039973;28;20045;-57
2023/05/10 07:03:20;;;;;;;5.00;3.50;;;12.10;99.90;;;;;;5042578;28;20063;-59
2023/05/10 07:05:45;;;;;;;3.90;2.78;;;12.20;99.90;;;;;;5044029;28;20464;-54
2023/05/10 07:08:11;;;;;;;4.07;2.90;;;12.20;99.90;;;;;;5042864;28;20531;-51
2023/05/10 07:10:36;;;;;;;3.90;2.58;;;12.20;99.90;;;;;;5043927;28;20561;-58
2023/05/10 07:13:02;;;;;;;4.10;2.20;;;12.20;99.90;;;;;;5043854;28;20045;-60
2023/05/10 07:15:28;;;;;;;3.00;2.30;;;12.30;99.90;;;;;;5039654;28;20048;-54
2023/05/10 07:17:54;;;;;;;3.13;2.10;;;12.30;99.90;;;;;;5040094;28;20056;-53
2023/05/10 07:20:19;;;;;;;3.65;2.28;;;12.30;99.90;;;;;;5040936;28;20059;-54
2023/05/10 07:22:45;;;;;;;2.78;1.95;;;12.30;99.90;;;;;;5041630;28;20048;-57
2023/05/10 07:25:11;;;;;;;3.10;1.92;;;12.30;99.90;;;;;;5040188;28;20049;-55
2023/05/10 07:27:36;;;;;;;2.67;1.80;;;12.30;99.90;;;;;;5040879;28;20399;-59
2023/05/10 07:30:02;;;;;;;2.72;1.88;;;12.30;99.90;;;;;;5040681;28;20044;-51
2023/05/10 07:32:28;;;;;;;1.90;1.30;;;12.40;99.90;;;;;;5040265;28;20265;-55
2023/05/10 07:34:53;;;;;;;1.42;1.05;;;12.40;99.90;;;;;;5040153;28;20091;-57
2023/05/10 07:37:19;;;;;;;1.98;1.10;;;12.40;99.90;;;;;;5041144;28;20475;-59
2023/05/10 07:39:45;;;;;;;2.55;1.10;;;12.40;99.90;;;;;;5044198;28;20184;-55
2023/05/10 07:42:10;;;;;;;2.15;1.27;;;12.30;99.90;;;;;;5044527;28;20077;-54
2023/05/10 07:44:36;;;;;;;1.90;1.02;;;12.30;99.90;;;;;;5044556;28;20045;-53
2023/05/10 07:47:02;;;;;;;2.10;1.20;;;12.40;99.90;;;;;;5044809;28;20381;-52
2023/05/10 07:49:27;;;;;;;3.17;1.60;;;12.30;99.90;;;;;;5043358;28;20450;-59
2023/05/10 07:51:53;;;;;;;2.53;1.63;;;12.30;99.90;;;;;;5044738;28;20041;-54
2023/05/10 07:54:18;;;;;;;3.50;2.55;;;12.30;99.90;;;;;;5044759;28;20144;-52
2023/05/10 07:56:46;;;;;;;4.03;2.53;;;12.30;99.90;;;;;;5044008;28;20675;-55
2023/05/10 07:59:16;;;;;;;4.47;3.30;;;12.30;99.90;;;;;;5044961;28;20045;-58
2023/05/10 08:01:42;;;;;;;4.82;3.40;;;12.30;99.90;;;;;;5044612;28;20402;-56
2023/05/10 08:04:08;;;;;;;6.63;4.13;;;12.30;99.90;;;;;;5043195;28;20144;-54
2023/05/10 08:06:34;;;;;;;6.90;4.10;;;12.30;99.90;;;;;;5035472;28;20045;-57
2023/05/10 08:09:02;;;;;;;5.00;3.92;;;12.20;99.90;;;;;;5041462;28;20491;-56
2023/05/10 08:11:27;;;;;;;4.95;3.90;;;12.20;99.90;;;;;;5025965;28;20087;-53
2023/05/10 08:13:53;;;;;;;6.30;4.13;;;12.20;99.90;;;;;;5043400;28;20356;-53
2023/05/10 08:16:20;;;;;;;5.38;4.28;;;12.30;99.90;;;;;;5043940;28;20044;-56
2023/05/10 08:18:46;;;;;;;5.63;4.45;;;12.20;99.90;;;;;;5042722;28;20673;-54
2023/05/10 08:21:13;;;;;;;6.00;4.88;;;12.30;99.90;;;;;;5043494;28;20045;-54
2023/05/10 08:23:39;;;;;;;6.30;5.10;;;12.20;99.90;;;;;;5044271;28;20558;-57
2023/05/10 08:26:05;;;;;;;6.80;4.97;;;12.30;99.90;;;;;;5042779;28;20044;-55
2023/05/10 08:28:30;;;;;;;9.23;6.07;;;12.40;99.90;;;;;;5043202;28;20036;-56
2023/05/10 08:30:56;;;;;;;10.52;5.90;;;12.40;99.90;;;;;;5043461;28;20041;-52
2023/05/10 08:33:22;;;;;;;9.77;7.30;;;12.30;99.90;;;;;;5041778;28;20232;-51
2023/05/10 08:35:48;;;;;;;10.98;8.23;;;12.40;99.90;;;;;;5044374;28;20467;-56
2023/05/10 08:38:13;;;;;;;9.93;7.85;;;12.40;99.90;;;;;;5042996;28;20045;-56
2023/05/10 08:40:43;;;;;;;10.13;7.72;;;12.40;99.90;;;;;;5035508;28;20033;-53
2023/05/10 08:43:11;;;;;;;13.95;8.15;;;12.30;99.90;;;;;;5041680;28;20052;-56
2023/05/10 08:45:42;;;;;;;11.52;8.60;;;12.30;99.90;;;;;;5042421;28;20373;-56
2023/05/10 08:48:10;;;;;;;12.90;9.52;;;12.30;99.90;;;;;;5042455;28;20387;-51
2023/05/10 08:50:40;;;;;;;10.48;8.43;;;12.30;99.90;;;;;;5042053;28;20044;-52
2023/05/10 08:53:10;;;;;;;8.95;7.47;;;12.30;99.90;;;;;;5042345;28;20049;-50
2023/05/10 08:55:38;;;;;;;8.45;7.00;;;12.30;99.90;;;;;;5042646;28;20376;-55
2023/05/10 08:58:05;;;;;;;8.40;7.03;;;12.30;99.90;;;;;;5042981;28;20187;-57
2023/05/10 09:00:31;;;;;;;7.25;6.50;;;12.40;99.90;;;;;;5042070;28;20037;-51
2023/05/10 09:02:58;;;;;;;7.60;6.78;;;12.30;99.90;;;;;;5042095;28;20045;-54
2023/05/10 09:05:24;;;;;;;7.05;6.35;;;12.40;99.90;;;;;;5041361;28;20056;-55
2023/05/10 09:07:50;;;;;;;9.82;6.60;;;12.40;99.90;;;;;;5040667;28;20400;-54
2023/05/10 09:10:16;;;;;;;9.50;7.00;;;12.40;99.90;;;;;;5042725;28;20048;-52
2023/05/10 09:12:43;;;;;;;7.18;6.15;;;12.40;99.90;;;;;;5042493;28;20033;-55
2023/05/10 09:15:10;;;;;;;7.65;6.85;;;12.40;99.90;;;;;;5042613;28;20094;-51
2023/05/10 09:17:36;;;;;;;8.20;6.88;;;12.40;99.90;;;;;;5040990;28;20294;-54
2023/05/10 09:20:04;;;;;;;8.18;7.05;;;12.40;99.90;;;;;;5042922;28;20074;-52
2023/05/10 09:22:33;;;;;;;10.15;7.80;;;12.40;99.90;;;;;;5043094;28;20055;-56
2023/05/10 09:25:05;;;;;;;9.25;7.55;;;12.40;99.90;;;;;;5042972;28;20045;-53
2023/05/10 09:27:30;;;;;;;9.30;7.53;;;12.40;99.90;;;;;;5043151;28;20049;-55
2023/05/10 09:29:56;;;;;;;8.23;7.43;;;12.50;99.90;;;;;;5042590;28;20052;-52
2023/05/10 09:32:35;;;;;;;7.68;6.88;;;12.50;99.90;;;;;;5042350;28;20446;-50
2023/05/10 09:35:10;;;;;;;8.20;7.40;;;12.50;99.90;;;;;;5022702;28;20060;-53
2023/05/10 09:37:35;;;;;;;;;;;12.60;99.90;;;;;;5022453;28;20042;-55
2023/05/10 09:40:04;;;;;;;6.63;5.97;;;12.60;99.90;;;;;;5022507;28;20007;-55
2023/05/10 09:42:30;;;;;;;6.72;6.03;;;12.60;99.90;;;;;;5022858;28;20033;-56
2023/05/10 09:45:03;;;;;;;6.68;5.97;;;12.60;99.90;;;;;;5022378;28;20056;-52
2023/05/10 09:47:31;;;;;;;7.10;6.28;;;12.70;99.90;;;;;;5021901;28;20515;-56
2023/05/10 09:50:02;;;;;;;7.18;6.47;;;12.80;99.90;;;;;;5022499;28;20056;-59
2023/05/10 09:52:28;;;;;;;8.00;6.30;;;12.80;99.90;;;;;;5022369;28;20085;-55
2023/05/10 09:54:54;;;;;;;6.47;5.72;;;12.70;99.90;;;;;;5023031;28;20508;-58
2023/05/10 09:57:21;;;;;;;8.75;6.18;;;12.80;99.90;;;;;;5022575;28;20435;-59
2023/05/10 09:59:47;;;;;;;6.10;5.47;;;12.80;99.90;;;;;;5021639;28;20124;-61
2023/05/10 10:02:13;;;;;;;6.65;5.80;;;12.80;99.90;;;;;;5022340;28;20129;-62
2023/05/10 10:04:42;;;;;;;8.43;5.55;;;12.80;99.90;;;;;;5021800;28;20557;-61
2023/05/10 10:07:08;;;;;;;6.07;4.95;;;12.90;99.90;;;;;;5021063;28;20045;-60
2023/05/10 10:09:35;;;;;;;5.57;4.97;;;12.90;99.90;;;;;;5022007;28;20134;-57
2023/05/10 10:12:01;;;;;;;5.60;4.93;;;13.00;99.90;;;;;;5020322;28;20126;-58
2023/05/10 10:14:29;;;;;;;6.80;4.95;;;12.90;99.90;;;;;;5021593;28;20053;-54
2023/05/10 10:16:55;;;;;;;4.80;3.95;;;12.90;99.90;;;;;;5022194;28;20470;-68
2023/05/10 10:19:21;;;;;;;6.97;4.18;;;12.90;99.90;;;;;;5020915;28;20067;-68
2023/05/10 10:21:48;;;;;;;7.18;4.28;;;12.80;99.90;;;;;;5021247;28;20128;-66
2023/05/10 10:24:14;;;;;;;6.03;4.15;;;12.90;99.90;;;;;;5021699;28;20045;-67
2023/05/10 10:26:42;;;;;;;4.65;3.75;;;12.90;99.90;;;;;;5023787;28;20050;-66
2023/05/10 10:29:34;;;;;;;4.22;3.05;;;13.10;99.90;;;;;;5024552;28;20053;-61
2023/05/10 10:32:19;;;;;;;3.92;3.15;;;13.20;99.90;;;;;;5023731;28;20048;-65
2023/05/10 10:34:45;;;;;;;3.85;3.17;;;13.30;99.90;;;;;;5021223;28;20037;-59
2023/05/10 10:37:11;;;;;;;4.13;3.25;;;13.40;99.90;;;;;;5020074;28;20491;-60
2023/05/10 10:39:36;;;;;;;6.57;3.92;;;13.50;99.90;;;;;;5021253;28;20045;-62
2023/05/10 10:42:03;;;;;;;5.20;3.90;;;13.50;99.90;;;;;;5020687;28;20077;-58
2023/05/10 10:44:33;;;;;;;5.50;3.95;;;13.50;99.90;;;;;;5019922;28;20045;-59
2023/05/10 10:47:18;;;;;;;6.93;4.00;;;13.50;99.90;;;;;;5021998;28;20141;-64
2023/05/10 10:49:51;;;;;;;5.60;4.65;;;13.60;99.90;;;;;;5021364;28;20050;-54
2023/05/10 10:52:36;;;;;;;7.10;5.00;;;13.50;99.90;;;;;;5040474;28;20419;-61
2023/05/10 10:55:18;;;;;;;6.40;4.97;;;13.50;99.90;;;;;;5040758;28;20136;-64
2023/05/10 10:57:51;;;;;;;6.85;5.25;;;13.50;99.90;;;;;;5041032;28;20037;-62
2023/05/10 11:00:26;;;;;;;8.35;5.80;;;13.50;99.90;;;;;;5041045;28;20041;-60
2023/05/10 11:02:59;;;;;;;7.78;6.00;;;13.60;99.90;;;;;;5040335;28;20033;-68
2023/05/10 11:05:35;;;;;;;6.25;5.40;;;13.60;99.90;;;;;;5040662;28;20407;-64
2023/05/10 11:08:29;;;;;;;7.45;5.45;;;13.70;99.90;;;;;;5040782;28;20063;-66
2023/05/10 11:11:04;;;;;;;7.75;6.63;;;13.80;99.90;;;;;;5035419;28;20056;-68
2023/05/10 11:13:31;;;;;;;;;;;13.90;99.90;;;;;;5040902;28;20045;-59
2023/05/10 11:15:58;;;;;;;7.30;4.50;;;14.00;99.90;;;;;;5035860;28;19925;-55
2023/05/10 11:18:29;;;;;;;6.63;5.65;;;14.10;99.90;;;;;;5041850;28;20094;-62
2023/05/10 11:21:05;;;;;;;6.13;5.07;;;14.20;99.90;;;;;;5040932;28;20091;-56
2023/05/10 11:23:47;;;;;;;7.38;5.45;;;14.30;99.90;;;;;;5039290;28;20033;-58
2023/05/10 11:26:13;;;;;;;8.07;5.53;;;14.30;99.90;;;;;;5040334;28;20458;-59
2023/05/10 11:28:47;;;;;;;6.68;4.72;;;14.30;99.90;;;;;;5040315;28;20041;-61
2023/05/10 11:31:19;;;;;;;5.75;4.82;;;14.40;99.90;;;;;;5040016;28;20287;-59
2023/05/10 11:33:56;;;;;;;6.75;4.38;;;14.50;99.90;;;;;;5039418;28;20041;-56
2023/05/10 11:36:28;;;;;;;6.40;4.40;;;14.60;99.90;;;;;;5040869;28;20091;-62
2023/05/10 11:38:56;;;;;;;4.68;3.80;;;14.50;99.90;;;;;;5039763;28;20455;-58
2023/05/10 11:41:23;;;;;;;4.88;3.78;;;14.50;99.90;;;;;;5038774;28;20045;-62
2023/05/10 11:43:53;;;;;;;7.32;4.53;;;14.50;99.90;;;;;;5039125;28;20407;-58
2023/05/10 11:46:21;;;;;;;4.65;3.63;;;14.50;99.90;;;;;;5039811;28;20114;-61
2023/05/10 11:48:52;;;;;;;4.50;3.38;;;14.50;99.90;;;;;;5038188;28;20204;-61
2023/05/10 11:51:22;;;;;;;4.55;2.50;;;14.50;99.90;;;;;;5039233;28;20041;-61
2023/05/10 11:53:50;;;;;;;4.05;2.67;;;14.60;99.90;;;;;;5039869;28;20047;-60
2023/05/10 11:56:15;;;;;;;4.47;2.40;;;14.60;99.90;;;;;;5040238;28;20041;-58
2023/05/10 11:58:41;;;;;;;3.25;2.35;;;14.60;99.90;;;;;;5040763;28;20128;-62
2023/05/10 12:01:08;;;;;;;5.50;2.65;;;14.50;99.90;;;;;;5041024;28;20156;-58
2023/05/10 12:03:34;;;;;;;4.25;2.70;;;14.50;99.90;;;;;;5039058;28;20124;-58
2023/05/10 12:06:01;;;;;;;4.15;2.90;;;14.40;99.90;;;;;;5040898;28;20137;-58
2023/05/10 12:08:28;;;;;;;5.57;3.08;;;14.40;99.90;;;;;;5040284;28;20427;-62
2023/05/10 12:11:04;;;;;;;4.57;3.28;;;14.50;99.90;;;;;;5040235;28;20076;-59
2023/05/10 12:13:29;;;;;;;4.10;2.83;;;14.50;99.90;;;;;;5040817;28;20136;-61
2023/05/10 12:15:58;;;;;;;5.35;3.30;;;14.50;99.90;;;;;;5040424;28;20124;-59
2023/05/10 12:18:25;;;;;;;6.22;3.25;;;14.50;99.90;;;;;;5038782;28;20260;-58
2023/05/10 12:20:53;;;;;;;3.83;2.97;;;14.50;99.90;;;;;;5040486;28;20243;-62
2023/05/10 12:23:20;;;;;;;4.32;3.28;;;14.50;99.90;;;;;;5040651;28;20112;-62
2023/05/10 12:25:46;;;;;;;6.50;3.45;;;14.60;99.90;;;;;;5042678;28;20041;-57
2023/05/10 12:28:12;;;;;;;4.82;3.47;;;14.60;99.90;;;;;;5043740;28;20079;-59
2023/05/10 12:30:38;;;;;;;6.47;3.50;;;14.60;99.90;;;;;;5043864;28;20041;-57
2023/05/10 12:33:11;;;;;;;5.50;3.92;;;14.60;99.90;;;;;;5042435;28;20369;-57
2023/05/10 12:35:51;;;;;;;7.47;4.20;;;14.70;99.90;;;;;;5043765;28;20502;-62
2023/05/10 12:38:45;;;;;;;8.02;4.50;;;14.80;99.90;;;;;;5042979;28;20041;-61
2023/05/10 12:41:14;;;;;;;8.48;5.10;;;14.80;99.90;;;;;;5042800;28;20457;-62
2023/05/10 12:43:40;;;;;;;8.05;5.32;;;14.90;99.90;;;;;;5043409;28;20434;-58